createdAt,value
2018-01-30T00:01:41.491Z,86.51
2018-01-30T00:04:07.246Z,86.74
2018-01-30T00:06:33.035Z,86.35
2018-01-30T00:08:58.825Z,87.04
2018-01-30T00:11:24.676Z,86.73
2018-01-30T00:13:50.455Z,86.64
2018-01-30T00:16:16.207Z,87.01
2018-01-30T00:18:41.959Z,87.56
2018-01-30T00:21:08.007Z,86.87
2018-01-30T00:23:34.109Z,86.35
2018-01-30T00:25:59.886Z,85.50
2018-01-30T00:28:25.655Z,85.50
2018-01-30T00:30:51.988Z,85.21
2018-01-30T00:33:18.387Z,85.20
2018-01-30T00:35:44.595Z,85.25
2018-01-30T00:38:10.470Z,85.69
2018-01-30T00:40:36.231Z,85.03
2018-01-30T00:43:02.043Z,84.70
2018-01-30T00:45:27.803Z,84.98
2018-01-30T00:47:53.587Z,84.17
2018-01-30T00:50:19.667Z,83.98
2018-01-30T00:52:45.455Z,84.17
2018-01-30T00:55:11.214Z,84.20
2018-01-30T00:57:36.983Z,84.18
2018-01-30T01:00:02.746Z,83.94
2018-01-30T01:02:28.527Z,83.71
2018-01-30T01:04:54.284Z,83.38
2018-01-30T01:07:20.055Z,82.87
2018-01-30T01:09:45.818Z,83.30
2018-01-30T01:12:11.579Z,83.58
2018-01-30T01:14:37.343Z,84.25
2018-01-30T01:17:03.114Z,84.42
2018-01-30T01:19:28.867Z,84.91
2018-01-30T01:21:54.644Z,85.07
2018-01-30T01:24:20.402Z,85.26
2018-01-30T01:26:46.162Z,85.07
2018-01-30T01:29:11.931Z,84.38
2018-01-30T01:31:37.697Z,85.41
2018-01-30T01:34:03.459Z,84.26
2018-01-30T01:36:29.214Z,84.57
2018-01-30T01:38:54.988Z,84.64
2018-01-30T01:41:20.746Z,84.86
2018-01-30T01:43:46.510Z,85.14
2018-01-30T01:46:12.260Z,84.03
2018-01-30T01:48:38.043Z,84.23
2018-01-30T01:51:03.795Z,83.46
2018-01-30T01:53:29.569Z,83.56
2018-01-30T01:55:55.338Z,83.39
2018-01-30T01:58:21.104Z,82.89
2018-01-30T02:00:46.846Z,84.13
2018-01-30T02:03:12.627Z,83.28
2018-01-30T02:05:38.382Z,83.37
2018-01-30T02:08:04.163Z,82.94
2018-01-30T02:10:29.919Z,83.31
2018-01-30T02:12:55.708Z,83.11
2018-01-30T02:15:21.454Z,82.83
2018-01-30T02:17:47.215Z,82.85
2018-01-30T02:20:12.969Z,82.71
2018-01-30T02:22:38.750Z,82.77
2018-01-30T02:25:04.516Z,81.87
2018-01-30T02:27:30.271Z,82.29
2018-01-30T02:29:56.028Z,83.01
2018-01-30T02:32:21.797Z,82.76
2018-01-30T02:34:47.563Z,82.72
2018-01-30T02:37:13.319Z,81.99
2018-01-30T02:39:39.080Z,82.23
2018-01-30T02:42:04.836Z,83.22
2018-01-30T02:44:30.620Z,83.51
2018-01-30T02:46:56.377Z,82.47
2018-01-30T02:49:22.131Z,81.84
2018-01-30T02:51:47.890Z,82.09
2018-01-30T02:54:13.655Z,82.82
2018-01-30T02:56:39.403Z,82.73
2018-01-30T02:59:05.165Z,82.64
2018-01-30T03:01:30.894Z,81.72
2018-01-30T03:03:56.655Z,82.60
2018-01-30T03:06:22.412Z,82.85
2018-01-30T03:08:48.168Z,81.62
2018-01-30T03:11:13.915Z,84.05
2018-01-30T03:13:39.678Z,83.86
2018-01-30T03:16:05.459Z,84.47
2018-01-30T03:18:31.213Z,85.21
2018-01-30T03:20:56.984Z,84.25
2018-01-30T03:23:22.759Z,84.34
2018-01-30T03:25:48.561Z,85.04
2018-01-30T03:28:14.291Z,83.49
2018-01-30T03:30:40.067Z,83.74
2018-01-30T03:33:05.823Z,83.75
2018-01-30T03:35:31.590Z,84.22
2018-01-30T03:37:57.343Z,84.15
2018-01-30T03:40:23.106Z,84.80
2018-01-30T03:42:48.855Z,83.80
2018-01-30T03:45:14.626Z,83.05
2018-01-30T03:47:40.404Z,82.76
2018-01-30T03:50:06.151Z,83.79
2018-01-30T03:52:31.910Z,83.29
2018-01-30T03:54:57.663Z,83.17
2018-01-30T03:57:23.419Z,83.00
2018-01-30T03:59:49.167Z,82.90
2018-01-30T04:02:14.936Z,82.64
2018-01-30T04:04:40.682Z,82.70
2018-01-30T04:07:06.435Z,82.83
2018-01-30T04:09:32.187Z,83.18
2018-01-30T04:11:57.963Z,83.53
2018-01-30T04:14:23.739Z,83.12
2018-01-30T04:16:49.491Z,83.60
2018-01-30T04:19:15.255Z,83.47
2018-01-30T04:21:41.017Z,83.63
2018-01-30T04:24:06.767Z,84.12
2018-01-30T04:26:32.518Z,84.20
2018-01-30T04:28:58.305Z,84.52
2018-01-30T04:31:24.034Z,84.54
2018-01-30T04:33:49.781Z,84.48
2018-01-30T04:36:15.518Z,85.11
2018-01-30T04:38:41.274Z,86.35
2018-01-30T04:41:07.023Z,85.62
2018-01-30T04:43:32.773Z,86.28
2018-01-30T04:45:58.532Z,86.85
2018-01-30T04:48:24.303Z,86.74
2018-01-30T04:50:50.054Z,86.76
2018-01-30T04:53:15.823Z,86.01
2018-01-30T04:55:41.579Z,85.08
2018-01-30T04:58:07.330Z,85.11
2018-01-30T05:00:33.086Z,85.13
2018-01-30T05:02:58.861Z,84.69
2018-01-30T05:05:24.603Z,84.79
2018-01-30T05:07:50.375Z,85.00
2018-01-30T05:10:16.123Z,84.67
2018-01-30T05:12:41.899Z,85.18
2018-01-30T05:15:07.654Z,84.97
2018-01-30T05:17:33.422Z,84.04
2018-01-30T05:19:59.192Z,83.25
2018-01-30T05:22:24.946Z,84.26
2018-01-30T05:24:50.711Z,83.57
2018-01-30T05:27:16.472Z,83.48
2018-01-30T05:29:42.234Z,83.84
2018-01-30T05:32:07.999Z,84.05
2018-01-30T05:34:33.767Z,83.31
2018-01-30T05:36:59.518Z,83.68
2018-01-30T05:39:25.271Z,83.57
2018-01-30T05:41:51.808Z,83.99
2018-01-30T05:44:17.585Z,83.90
2018-01-30T05:46:43.326Z,83.54
2018-01-30T05:49:09.083Z,83.75
2018-01-30T05:51:34.826Z,83.91
2018-01-30T05:54:00.587Z,83.35
2018-01-30T05:56:26.335Z,83.64
2018-01-30T05:58:52.086Z,83.89
2018-01-30T06:01:17.842Z,83.78
2018-01-30T06:03:43.582Z,83.62
2018-01-30T06:06:09.389Z,83.66
2018-01-30T06:08:35.114Z,83.48
2018-01-30T06:11:00.887Z,83.69
2018-01-30T06:13:26.635Z,84.00
2018-01-30T06:15:52.382Z,83.84
2018-01-30T06:18:18.146Z,84.01
2018-01-30T06:20:43.907Z,84.90
2018-01-30T06:23:09.679Z,84.79
2018-01-30T06:25:35.442Z,85.06
2018-01-30T06:28:01.211Z,84.59
2018-01-30T06:30:26.971Z,84.59
2018-01-30T06:32:52.734Z,84.62
2018-01-30T06:35:18.501Z,84.85
2018-01-30T06:37:44.245Z,84.85
2018-01-30T06:40:09.999Z,85.05
2018-01-30T06:42:35.764Z,85.05
2018-01-30T06:45:01.528Z,85.38
2018-01-30T06:47:27.283Z,85.32
2018-01-30T06:49:53.054Z,85.13
2018-01-30T06:52:18.802Z,85.37
2018-01-30T06:54:44.538Z,85.65
2018-01-30T06:57:10.287Z,85.67
2018-01-30T06:59:36.045Z,85.99
2018-01-30T07:02:01.828Z,86.02
2018-01-30T07:04:27.623Z,86.53
2018-01-30T07:06:53.370Z,86.86
2018-01-30T07:09:19.120Z,87.14
2018-01-30T07:11:44.889Z,87.42
2018-01-30T07:14:10.636Z,87.34
2018-01-30T07:16:36.432Z,87.21
2018-01-30T07:19:02.182Z,87.66
2018-01-30T07:21:27.947Z,87.80
2018-01-30T07:23:53.703Z,87.60
2018-01-30T07:26:19.470Z,87.68
2018-01-30T07:28:45.249Z,87.34
2018-01-30T07:31:11.023Z,86.99
2018-01-30T07:33:36.766Z,86.61
2018-01-30T07:36:02.531Z,86.78
2018-01-30T07:38:28.287Z,86.56
2018-01-30T07:40:54.050Z,86.77
2018-01-30T07:43:19.820Z,86.95
2018-01-30T07:45:45.578Z,87.05
2018-01-30T07:48:11.351Z,86.39
2018-01-30T07:50:37.096Z,86.40
2018-01-30T07:53:02.857Z,85.57
2018-01-30T07:55:28.619Z,85.55
2018-01-30T07:57:54.399Z,85.17
2018-01-30T08:00:20.156Z,85.58
2018-01-30T08:02:45.919Z,84.92
2018-01-30T08:05:11.662Z,85.30
2018-01-30T08:07:37.414Z,84.97
2018-01-30T08:10:03.175Z,85.09
2018-01-30T08:12:28.936Z,85.03
2018-01-30T08:14:54.699Z,85.15
2018-01-30T08:17:20.469Z,84.79
2018-01-30T08:19:46.233Z,84.71
2018-01-30T08:22:12.023Z,85.11
2018-01-30T08:24:37.785Z,85.17
2018-01-30T08:27:03.581Z,84.95
2018-01-30T08:29:29.316Z,85.08
2018-01-30T08:31:55.076Z,85.06
2018-01-30T08:34:20.843Z,85.48
2018-01-30T08:36:46.587Z,84.76
2018-01-30T08:39:12.340Z,84.62
2018-01-30T08:41:38.090Z,84.76
2018-01-30T08:44:03.835Z,84.46
2018-01-30T08:46:29.586Z,84.22
2018-01-30T08:48:55.342Z,84.17
2018-01-30T08:51:21.095Z,84.11
2018-01-30T08:53:46.868Z,84.01
2018-01-30T08:56:12.618Z,84.00
2018-01-30T08:58:38.367Z,84.70
2018-01-30T09:01:04.127Z,83.66
2018-01-30T09:03:29.929Z,83.98
2018-01-30T09:05:55.662Z,83.01
2018-01-30T09:08:21.435Z,83.64
2018-01-30T09:10:47.187Z,82.58
2018-01-30T09:13:12.958Z,82.37
2018-01-30T09:15:38.731Z,82.94
2018-01-30T09:18:04.478Z,83.08
2018-01-30T09:20:30.246Z,82.16
2018-01-30T09:22:56.019Z,81.57
2018-01-30T09:25:21.779Z,81.65
2018-01-30T09:27:47.534Z,81.66
2018-01-30T09:30:13.286Z,81.15
2018-01-30T09:32:39.055Z,81.46
2018-01-30T09:35:04.827Z,81.68
2018-01-30T09:37:30.584Z,81.55
2018-01-30T09:39:56.338Z,81.35
2018-01-30T09:42:22.087Z,81.66
2018-01-30T09:44:47.863Z,81.74
2018-01-30T09:47:13.615Z,81.22
2018-01-30T09:49:39.382Z,81.22
2018-01-30T09:52:05.146Z,81.58
2018-01-30T09:54:30.899Z,82.09
2018-01-30T09:56:56.672Z,81.98
2018-01-30T09:59:22.424Z,82.13
2018-01-30T10:01:48.180Z,81.69
2018-01-30T10:04:13.946Z,80.96
2018-01-30T10:06:39.718Z,81.04
2018-01-30T10:09:05.475Z,81.68
2018-01-30T10:11:31.235Z,81.52
2018-01-30T10:13:56.999Z,80.92
2018-01-30T10:16:22.770Z,81.94
2018-01-30T10:18:48.543Z,82.66
2018-01-30T10:21:14.310Z,82.60
2018-01-30T10:23:40.054Z,82.95
2018-01-30T10:26:05.803Z,84.37
2018-01-30T10:28:31.547Z,86.01
2018-01-30T10:30:57.344Z,86.84
2018-01-30T10:33:23.093Z,88.10
2018-01-30T10:35:48.861Z,88.00
2018-01-30T10:38:21.593Z,88.82
2018-01-30T10:40:47.354Z,89.20
2018-01-30T10:43:13.111Z,89.88
2018-01-30T10:45:38.883Z,90.44
2018-01-30T10:48:04.635Z,90.32
2018-01-30T10:50:30.387Z,90.49
2018-01-30T10:52:56.166Z,89.71
2018-01-30T10:55:21.928Z,89.62
2018-01-30T10:57:47.685Z,89.96
2018-01-30T11:00:13.450Z,88.99
2018-01-30T11:02:39.231Z,88.57
2018-01-30T11:05:04.983Z,88.09
2018-01-30T11:07:30.780Z,87.51
2018-01-30T11:09:56.532Z,86.51
2018-01-30T11:12:22.307Z,86.13
2018-01-30T11:14:48.146Z,87.95
2018-01-30T11:17:13.903Z,89.14
2018-01-30T11:19:39.663Z,90.09
2018-01-30T11:22:05.433Z,91.19
2018-01-30T11:24:31.189Z,92.20
2018-01-30T11:26:56.951Z,92.64
2018-01-30T11:29:22.707Z,92.89
2018-01-30T11:31:48.478Z,93.11
2018-01-30T11:34:14.274Z,92.88
2018-01-30T11:36:40.018Z,92.86
2018-01-30T11:39:05.770Z,92.18
2018-01-30T11:41:31.585Z,90.66
2018-01-30T11:43:57.302Z,89.85
2018-01-30T11:46:23.056Z,89.66
2018-01-30T11:48:48.838Z,90.02
2018-01-30T11:51:14.609Z,89.02
2018-01-30T11:53:40.380Z,87.05
2018-01-30T11:56:06.125Z,87.24
2018-01-30T11:58:31.890Z,86.52
2018-01-30T12:00:57.672Z,87.01
2018-01-30T12:03:23.436Z,86.50
2018-01-30T12:05:49.206Z,86.36
2018-01-30T12:08:14.966Z,85.36
2018-01-30T12:10:40.727Z,85.46
2018-01-30T12:13:13.402Z,83.64
2018-01-30T12:15:39.138Z,83.85
2018-01-30T12:18:04.894Z,83.40
2018-01-30T12:20:30.645Z,83.49
2018-01-30T12:22:56.398Z,84.77
2018-01-30T12:25:22.160Z,84.90
2018-01-30T12:27:47.940Z,84.55
2018-01-30T12:30:13.691Z,83.86
2018-01-30T12:32:39.442Z,83.38
2018-01-30T12:35:05.191Z,82.85
2018-01-30T12:37:30.959Z,83.54
2018-01-30T12:39:56.710Z,81.98
2018-01-30T12:42:22.456Z,84.10
2018-01-30T12:44:48.206Z,82.80
2018-01-30T12:47:13.935Z,82.76
2018-01-30T12:49:39.687Z,82.15
2018-01-30T12:52:05.424Z,81.58
2018-01-30T12:54:38.394Z,80.50
2018-01-30T12:57:04.131Z,80.87
2018-01-30T12:59:29.877Z,81.49
2018-01-30T13:01:55.618Z,81.64
2018-01-30T13:04:21.379Z,79.79
2018-01-30T13:06:47.128Z,80.04
2018-01-30T13:09:12.887Z,79.65
2018-01-30T13:11:38.630Z,79.38
2018-01-30T13:14:04.378Z,78.43
2018-01-30T13:16:30.126Z,78.36
2018-01-30T13:18:55.896Z,77.97
2018-01-30T13:21:21.662Z,78.53
2018-01-30T13:23:47.421Z,78.76
2018-01-30T13:26:13.175Z,79.06
2018-01-30T13:28:38.948Z,78.88
2018-01-30T13:33:37.201Z,78.62
2018-01-30T13:36:03.031Z,78.45
2018-01-30T13:38:28.792Z,77.60
2018-01-30T13:40:54.616Z,76.87
2018-01-30T13:43:20.339Z,78.83
2018-01-30T13:45:46.111Z,78.86
2018-01-30T13:48:11.872Z,79.86
2018-01-30T13:50:37.630Z,78.50
2018-01-30T13:53:03.383Z,78.86
2018-01-30T13:55:29.143Z,79.28
2018-01-30T13:57:54.895Z,79.28
2018-01-30T14:00:20.662Z,79.57
2018-01-30T14:02:46.415Z,79.96
2018-01-30T14:05:12.170Z,79.87
2018-01-30T14:07:37.934Z,79.41
2018-01-30T14:10:03.710Z,80.01
2018-01-30T14:12:29.525Z,79.68
2018-01-30T14:14:55.270Z,79.81
2018-01-30T14:17:21.030Z,79.29
2018-01-30T14:19:46.791Z,79.28
2018-01-30T14:22:12.562Z,79.31
2018-01-30T14:24:38.326Z,79.35
2018-01-30T14:27:04.092Z,79.48
2018-01-30T14:29:29.848Z,79.87
2018-01-30T14:31:55.610Z,79.26
2018-01-30T14:34:21.359Z,79.27
2018-01-30T14:36:54.035Z,79.66
2018-01-30T14:39:19.779Z,79.30
2018-01-30T14:41:45.533Z,79.46
2018-01-30T14:44:11.275Z,79.40
2018-01-30T14:46:37.035Z,80.78
2018-01-30T14:49:02.783Z,79.99
2018-01-30T14:51:28.539Z,80.14
2018-01-30T14:53:54.296Z,80.22
2018-01-30T14:56:20.071Z,79.73
2018-01-30T14:58:45.824Z,80.38
2018-01-30T15:01:11.587Z,79.94
2018-01-30T15:03:37.347Z,79.89
2018-01-30T15:06:03.104Z,79.77
2018-01-30T15:08:28.878Z,80.90
2018-01-30T15:10:54.634Z,80.24
2018-01-30T15:13:20.435Z,80.60
2018-01-30T15:15:46.183Z,81.16
2018-01-30T15:18:11.934Z,81.85
2018-01-30T15:20:37.682Z,82.49
2018-01-30T15:23:03.443Z,83.16
2018-01-30T15:25:29.203Z,83.19
2018-01-30T15:27:54.955Z,83.05
2018-01-30T15:30:20.684Z,83.65
2018-01-30T15:32:46.451Z,83.48
2018-01-30T15:35:12.196Z,83.17
2018-01-30T15:37:37.960Z,83.12
2018-01-30T15:40:03.755Z,82.47
2018-01-30T15:42:29.515Z,82.57
2018-01-30T15:44:55.274Z,82.89
2018-01-30T15:47:21.035Z,82.51
2018-01-30T15:49:46.818Z,82.16
2018-01-30T15:52:12.561Z,81.58
2018-01-30T15:54:38.334Z,82.10
2018-01-30T15:57:04.096Z,81.67
2018-01-30T15:59:29.858Z,81.54
2018-01-30T16:01:55.623Z,81.76
2018-01-30T16:04:21.388Z,82.22
2018-01-30T16:06:47.134Z,81.87
2018-01-30T16:09:12.886Z,82.25
2018-01-30T16:11:38.650Z,83.01
2018-01-30T16:14:04.415Z,82.72
2018-01-30T16:16:30.172Z,82.98
2018-01-30T16:18:55.921Z,83.68
2018-01-30T16:21:21.658Z,83.61
2018-01-30T16:23:47.418Z,83.53
2018-01-30T16:26:13.172Z,83.81
2018-01-30T16:28:38.918Z,83.98
2018-01-30T16:31:04.687Z,83.83
2018-01-30T16:33:30.457Z,83.62
2018-01-30T16:35:56.206Z,83.31
2018-01-30T16:38:21.975Z,83.90
2018-01-30T16:40:47.775Z,83.70
2018-01-30T16:43:13.519Z,84.12
2018-01-30T16:45:39.279Z,84.98
2018-01-30T16:48:05.034Z,85.09
2018-01-30T16:50:30.801Z,85.64
2018-01-30T16:52:56.559Z,85.62
2018-01-30T16:55:22.315Z,86.28
2018-01-30T16:57:48.083Z,86.18
2018-01-30T17:00:13.855Z,86.07
2018-01-30T17:02:39.611Z,85.84
2018-01-30T17:05:05.385Z,85.98
2018-01-30T17:07:31.142Z,85.97
2018-01-30T17:09:56.918Z,86.26
2018-01-30T17:12:22.730Z,86.24
2018-01-30T17:14:48.487Z,86.38
2018-01-30T17:17:14.263Z,86.43
2018-01-30T17:19:40.026Z,86.12
2018-01-30T17:22:05.794Z,86.34
2018-01-30T17:24:31.559Z,86.46
2018-01-30T17:26:57.331Z,86.24
2018-01-30T17:29:23.103Z,86.23
2018-01-30T17:31:48.891Z,85.97
2018-01-30T17:34:14.635Z,85.92
2018-01-30T17:36:40.382Z,86.05
2018-01-30T17:39:06.127Z,86.35
2018-01-30T17:41:31.890Z,86.53
2018-01-30T17:43:57.643Z,86.49
2018-01-30T17:46:23.403Z,86.56
2018-01-30T17:48:49.150Z,86.17
2018-01-30T17:51:14.898Z,86.64
2018-01-30T17:53:40.634Z,86.34
2018-01-30T17:56:06.454Z,86.01
2018-01-30T17:58:32.219Z,85.71
2018-01-30T18:00:57.978Z,85.72
2018-01-30T18:03:23.744Z,86.01
2018-01-30T18:05:49.474Z,86.12
2018-01-30T18:08:15.218Z,86.26
2018-01-30T18:10:41.008Z,86.04
2018-01-30T18:13:06.771Z,85.77
2018-01-30T18:15:32.573Z,86.05
2018-01-30T18:17:58.330Z,86.03
2018-01-30T18:20:24.126Z,86.17
2018-01-30T18:22:49.900Z,85.95
2018-01-30T18:25:15.666Z,86.00
2018-01-30T18:27:41.436Z,85.90
2018-01-30T18:30:07.210Z,86.07
2018-01-30T18:32:32.988Z,85.92
2018-01-30T18:34:58.734Z,85.85
2018-01-30T18:37:24.478Z,86.32
2018-01-30T18:39:50.241Z,85.99
2018-01-30T18:42:15.999Z,86.39
2018-01-30T18:44:41.795Z,86.50
2018-01-30T18:47:07.550Z,86.17
2018-01-30T18:49:33.420Z,86.68
2018-01-30T18:51:59.162Z,86.85
2018-01-30T18:54:24.918Z,87.09
2018-01-30T18:56:50.682Z,86.83
2018-01-30T18:59:16.452Z,86.95
2018-01-30T19:01:42.203Z,86.91
2018-01-30T19:04:07.969Z,87.44
2018-01-30T19:06:33.735Z,87.55
2018-01-30T19:08:59.511Z,87.68
2018-01-30T19:11:25.267Z,87.70
2018-01-30T19:13:51.039Z,87.56
2018-01-30T19:16:16.790Z,87.24
2018-01-30T19:18:42.538Z,87.61
2018-01-30T19:21:08.289Z,87.38
2018-01-30T19:23:34.047Z,87.87
2018-01-30T19:25:59.809Z,87.52
2018-01-30T19:28:25.555Z,87.42
2018-01-30T19:30:51.331Z,87.61
2018-01-30T19:33:17.087Z,87.52
2018-01-30T19:35:42.851Z,87.52
2018-01-30T19:38:08.611Z,87.44
2018-01-30T19:40:34.374Z,87.37
2018-01-30T19:43:00.126Z,87.29
2018-01-30T19:45:25.881Z,87.70
2018-01-30T19:47:51.637Z,87.85
2018-01-30T19:50:17.402Z,87.82
2018-01-30T19:52:43.151Z,87.70
2018-01-30T19:55:08.898Z,87.88
2018-01-30T19:57:34.643Z,87.84
2018-01-30T20:00:00.382Z,87.70
2018-01-30T20:02:26.155Z,87.83
2018-01-30T20:04:51.911Z,87.80
2018-01-30T20:07:17.670Z,87.60
2018-01-30T20:09:43.421Z,87.80
2018-01-30T20:12:09.182Z,87.76
2018-01-30T20:14:34.943Z,87.85
2018-01-30T20:17:00.705Z,87.69
2018-01-30T20:19:26.446Z,87.68
2018-01-30T20:21:52.190Z,87.95
2018-01-30T20:24:17.935Z,87.74
2018-01-30T20:26:44.562Z,87.76
2018-01-30T20:29:10.294Z,87.64
2018-01-30T20:31:36.058Z,87.73
2018-01-30T20:34:01.823Z,87.67
2018-01-30T20:36:27.598Z,87.84
2018-01-30T20:38:53.358Z,88.13
2018-01-30T20:41:19.119Z,87.65
2018-01-30T20:43:44.890Z,87.62
2018-01-30T20:46:10.646Z,87.89
2018-01-30T20:48:36.413Z,87.86
2018-01-30T20:51:02.218Z,87.88
2018-01-30T20:53:27.947Z,87.90
2018-01-30T20:55:53.703Z,88.00
2018-01-30T20:58:19.474Z,88.08
2018-01-30T21:00:45.244Z,87.98
2018-01-30T21:03:11.007Z,88.23
2018-01-30T21:05:36.756Z,88.16
2018-01-30T21:08:02.514Z,88.28
2018-01-30T21:10:28.255Z,88.18
2018-01-30T21:12:54.015Z,88.41
2018-01-30T21:15:19.760Z,88.28
2018-01-30T21:17:45.583Z,88.13
2018-01-30T21:20:11.330Z,88.27
2018-01-30T21:22:37.062Z,88.32
2018-01-30T21:25:02.821Z,88.39
2018-01-30T21:27:28.571Z,88.38
2018-01-30T21:29:54.331Z,88.40
2018-01-30T21:32:20.104Z,88.40
2018-01-30T21:34:45.853Z,88.46
2018-01-30T21:37:11.623Z,88.89
2018-01-30T21:39:37.394Z,88.69
2018-01-30T21:42:03.154Z,88.67
2018-01-30T21:44:28.978Z,88.86
2018-01-30T21:46:55.038Z,88.80
2018-01-30T21:49:21.098Z,88.81
2018-01-30T21:51:47.402Z,88.85
2018-01-30T21:54:18.398Z,88.99
2018-01-30T21:56:39.046Z,89.28
2018-01-30T21:59:04.834Z,89.45
2018-01-30T22:01:30.591Z,89.56
2018-01-30T22:03:57.288Z,90.03
2018-01-30T22:06:23.150Z,90.13
2018-01-30T22:08:48.920Z,90.10
2018-01-30T22:11:14.978Z,90.47
2018-01-30T22:13:40.758Z,90.71
2018-01-30T22:16:06.532Z,90.96
2018-01-30T22:18:32.279Z,90.90
2018-01-30T22:20:58.086Z,90.88
2018-01-30T22:23:23.851Z,90.87
2018-01-30T22:25:49.623Z,91.11
2018-01-30T22:28:15.425Z,91.11
2018-01-30T22:30:41.498Z,91.29
2018-01-30T22:33:07.269Z,91.47
2018-01-30T22:35:34.022Z,91.44
2018-01-30T22:37:59.790Z,91.44
2018-01-30T22:40:25.701Z,91.73
2018-01-30T22:42:51.829Z,91.69
2018-01-30T22:45:17.602Z,91.93
